sensor_id;sensor_type;location;lat;lon;timestamp;pressure;altitude;pressure_sealevel;temperature;humidity
72414;BME280;60995;52.154;4.498;2023-02-20T00:01:28;102431.25;;;8.61;78.64
72414;BME280;60995;52.154;4.498;2023-02-20T00:03:46;102428.81;;;8.57;78.74
72414;BME280;60995;52.154;4.498;2023-02-20T00:06:02;102431.25;;;8.61;78.77
72414;BME280;60995;52.154;4.498;2023-02-20T00:08:18;102423.56;;;8.54;79.36
72414;BME280;60995;52.154;4.498;2023-02-20T00:10:34;102422.69;;;8.53;79.55
72414;BME280;60995;52.154;4.498;2023-02-20T00:12:51;102427.72;;;8.43;80.13
72414;BME280;60995;52.154;4.498;2023-02-20T00:15:07;102411.78;;;8.55;79.93
72414;BME280;60995;52.154;4.498;2023-02-20T00:17:25;102411.63;;;8.58;79.51
72414;BME280;60995;52.154;4.498;2023-02-20T00:19:42;102409.34;;;8.50;79.74
72414;BME280;60995;52.154;4.498;2023-02-20T00:22:03;102409.28;;;8.34;80.43
72414;BME280;60995;52.154;4.498;2023-02-20T00:24:19;102401.75;;;8.23;81.03
72414;BME280;60995;52.154;4.498;2023-02-20T00:26:35;102408.50;;;8.32;81.03
72414;BME280;60995;52.154;4.498;2023-02-20T00:28:51;102404.66;;;8.36;80.87
72414;BME280;60995;52.154;4.498;2023-02-20T00:31:07;102401.53;;;8.28;81.21
72414;BME280;60995;52.154;4.498;2023-02-20T00:33:28;102399.78;;;8.27;81.64
72414;BME280;60995;52.154;4.498;2023-02-20T00:35:45;102403.41;;;8.26;81.42
72414;BME280;60995;52.154;4.498;2023-02-20T00:38:01;102399.25;;;8.36;81.25
72414;BME280;60995;52.154;4.498;2023-02-20T00:40:18;102403.19;;;8.31;81.54
72414;BME280;60995;52.154;4.498;2023-02-20T00:42:36;102399.25;;;8.36;81.70
72414;BME280;60995;52.154;4.498;2023-02-20T00:44:52;102398.63;;;8.31;81.64
72414;BME280;60995;52.154;4.498;2023-02-20T00:47:08;102388.78;;;8.30;81.95
72414;BME280;60995;52.154;4.498;2023-02-20T00:49:24;102389.91;;;8.26;82.20
72414;BME280;60995;52.154;4.498;2023-02-20T00:51:40;102374.63;;;8.25;82.40
72414;BME280;60995;52.154;4.498;2023-02-20T00:53:56;102383.38;;;8.30;82.09
72414;BME280;60995;52.154;4.498;2023-02-20T00:56:13;102376.56;;;8.23;82.52
72414;BME280;60995;52.154;4.498;2023-02-20T00:58:29;102385.28;;;8.28;82.27
72414;BME280;60995;52.154;4.498;2023-02-20T01:00:45;102377.50;;;8.22;82.88
72414;BME280;60995;52.154;4.498;2023-02-20T01:03:01;102373.78;;;8.40;82.49
72414;BME280;60995;52.154;4.498;2023-02-20T01:05:17;102372.34;;;8.17;82.92
72414;BME280;60995;52.154;4.498;2023-02-20T01:07:34;102363.81;;;8.25;83.36
72414;BME280;60995;52.154;4.498;2023-02-20T01:09:50;102347.69;;;8.23;83.50
72414;BME280;60995;52.154;4.498;2023-02-20T01:12:06;102337.31;;;8.32;83.37
72414;BME280;60995;52.154;4.498;2023-02-20T01:14:22;102328.94;;;8.36;82.98
72414;BME280;60995;52.154;4.498;2023-02-20T01:16:43;102319.59;;;8.42;83.54
72414;BME280;60995;52.154;4.498;2023-02-20T01:19:00;102318.31;;;8.33;83.52
72414;BME280;60995;52.154;4.498;2023-02-20T01:21:17;102317.31;;;8.34;83.97
72414;BME280;60995;52.154;4.498;2023-02-20T01:23:33;102330.50;;;8.40;83.93
72414;BME280;60995;52.154;4.498;2023-02-20T01:25:49;102324.16;;;8.41;84.38
72414;BME280;60995;52.154;4.498;2023-02-20T01:28:05;102320.94;;;8.51;84.04
72414;BME280;60995;52.154;4.498;2023-02-20T01:30:21;102311.75;;;8.37;84.40
72414;BME280;60995;52.154;4.498;2023-02-20T01:32:37;102308.97;;;8.39;84.30
72414;BME280;60995;52.154;4.498;2023-02-20T01:34:53;102306.81;;;8.46;84.32
72414;BME280;60995;52.154;4.498;2023-02-20T01:37:13;102305.13;;;8.43;84.63
72414;BME280;60995;52.154;4.498;2023-02-20T01:39:30;102295.09;;;8.45;84.76
72414;BME280;60995;52.154;4.498;2023-02-20T01:41:46;102304.09;;;8.46;85.22
72414;BME280;60995;52.154;4.498;2023-02-20T01:44:04;102301.06;;;8.52;85.17
72414;BME280;60995;52.154;4.498;2023-02-20T01:46:42;102292.47;;;8.43;85.36
72414;BME280;60995;52.154;4.498;2023-02-20T01:49:08;102282.47;;;8.46;85.48
72414;BME280;60995;52.154;4.498;2023-02-20T01:51:26;102284.81;;;8.52;85.76
72414;BME280;60995;52.154;4.498;2023-02-20T01:53:46;102283.34;;;8.46;85.64
72414;BME280;60995;52.154;4.498;2023-02-20T01:56:03;102283.34;;;8.46;85.77
72414;BME280;60995;52.154;4.498;2023-02-20T01:58:30;102274.69;;;8.55;85.42
72414;BME280;60995;52.154;4.498;2023-02-20T02:00:51;102269.09;;;8.42;85.89
72414;BME280;60995;52.154;4.498;2023-02-20T02:03:10;102267.03;;;8.48;86.34
72414;BME280;60995;52.154;4.498;2023-02-20T02:05:28;102261.09;;;8.57;85.63
72414;BME280;60995;52.154;4.498;2023-02-20T02:07:46;102247.38;;;8.60;85.58
72414;BME280;60995;52.154;4.498;2023-02-20T02:10:03;102256.03;;;8.51;86.08
72414;BME280;60995;52.154;4.498;2023-02-20T02:12:22;102252.16;;;8.55;85.79
72414;BME280;60995;52.154;4.498;2023-02-20T02:14:38;102252.16;;;8.55;86.00
72414;BME280;60995;52.154;4.498;2023-02-20T02:17:07;102255.66;;;8.57;85.88
72414;BME280;60995;52.154;4.498;2023-02-20T02:27:28;102248.75;;;8.67;85.44
72414;BME280;60995;52.154;4.498;2023-02-20T02:35:33;102244.06;;;8.55;85.71
72414;BME280;60995;52.154;4.498;2023-02-20T02:38:30;102236.63;;;8.58;85.71
72414;BME280;60995;52.154;4.498;2023-02-20T02:41:06;102235.38;;;8.64;85.56
72414;BME280;60995;52.154;4.498;2023-02-20T02:43:53;102234.78;;;8.75;85.39
72414;BME280;60995;52.154;4.498;2023-02-20T02:46:24;102245.84;;;8.70;86.04
72414;BME280;60995;52.154;4.498;2023-02-20T02:48:46;102239.25;;;8.60;85.84
72414;BME280;60995;52.154;4.498;2023-02-20T02:51:13;102251.63;;;8.64;85.93
72414;BME280;60995;52.154;4.498;2023-02-20T02:53:33;102244.16;;;8.84;85.50
72414;BME280;60995;52.154;4.498;2023-02-20T02:55:49;102248.91;;;8.80;85.10
72414;BME280;60995;52.154;4.498;2023-02-20T02:58:05;102240.41;;;8.86;84.77
72414;BME280;60995;52.154;4.498;2023-02-20T03:00:24;102238.94;;;8.81;84.55
72414;BME280;60995;52.154;4.498;2023-02-20T03:08:44;102234.63;;;8.92;84.62
72414;BME280;60995;52.154;4.498;2023-02-20T03:11:17;102234.81;;;8.89;84.22
72414;BME280;60995;52.154;4.498;2023-02-20T03:19:11;102243.69;;;8.91;83.99
72414;BME280;60995;52.154;4.498;2023-02-20T03:21:29;102243.25;;;8.99;83.55
72414;BME280;60995;52.154;4.498;2023-02-20T03:23:53;102247.00;;;8.97;83.57
72414;BME280;60995;52.154;4.498;2023-02-20T03:26:19;102224.16;;;8.86;83.63
72414;BME280;60995;52.154;4.498;2023-02-20T03:28:45;102234.44;;;8.96;83.35
72414;BME280;60995;52.154;4.498;2023-02-20T03:31:07;102226.84;;;9.02;83.54
72414;BME280;60995;52.154;4.498;2023-02-20T03:33:33;102231.25;;;9.03;82.72
72414;BME280;60995;52.154;4.498;2023-02-20T03:36:12;102223.94;;;9.05;82.83
72414;BME280;60995;52.154;4.498;2023-02-20T03:38:59;102215.69;;;9.07;83.14
72414;BME280;60995;52.154;4.498;2023-02-20T03:41:37;102212.53;;;9.15;82.26
72414;BME280;60995;52.154;4.498;2023-02-20T03:44:15;102220.75;;;9.13;82.52
72414;BME280;60995;52.154;4.498;2023-02-20T03:46:33;102211.78;;;9.13;82.42
72414;BME280;60995;52.154;4.498;2023-02-20T03:49:02;102205.78;;;9.22;82.40
72414;BME280;60995;52.154;4.498;2023-02-20T03:51:22;102206.38;;;9.27;81.97
72414;BME280;60995;52.154;4.498;2023-02-20T03:53:39;102211.69;;;9.29;81.79
72414;BME280;60995;52.154;4.498;2023-02-20T03:55:58;102208.78;;;9.32;81.87
72414;BME280;60995;52.154;4.498;2023-02-20T03:58:20;102210.22;;;9.23;82.11
72414;BME280;60995;52.154;4.498;2023-02-20T04:00:41;102199.38;;;9.23;82.57
72414;BME280;60995;52.154;4.498;2023-02-20T04:03:01;102200.53;;;9.48;81.63
72414;BME280;60995;52.154;4.498;2023-02-20T04:05:26;102205.78;;;9.36;81.96
72414;BME280;60995;52.154;4.498;2023-02-20T04:07:49;102194.75;;;9.39;81.39
72414;BME280;60995;52.154;4.498;2023-02-20T04:10:11;102196.88;;;9.34;81.82
72414;BME280;60995;52.154;4.498;2023-02-20T04:12:33;102202.13;;;9.37;81.46
72414;BME280;60995;52.154;4.498;2023-02-20T04:14:53;102205.19;;;9.31;82.10
72414;BME280;60995;52.154;4.498;2023-02-20T04:17:13;102203.81;;;9.24;82.24
72414;BME280;60995;52.154;4.498;2023-02-20T04:19:32;102209.84;;;9.29;82.10
72414;BME280;60995;52.154;4.498;2023-02-20T04:21:49;102209.94;;;9.27;82.07
72414;BME280;60995;52.154;4.498;2023-02-20T04:24:18;102211.97;;;9.38;81.85
72414;BME280;60995;52.154;4.498;2023-02-20T04:26:39;102211.31;;;9.49;81.18
72414;BME280;60995;52.154;4.498;2023-02-20T04:28:56;102197.66;;;9.22;81.99
72414;BME280;60995;52.154;4.498;2023-02-20T04:31:12;102204.72;;;9.39;81.37
72414;BME280;60995;52.154;4.498;2023-02-20T04:33:31;102212.84;;;9.53;81.26
72414;BME280;60995;52.154;4.498;2023-02-20T04:35:47;102213.59;;;9.41;81.32
72414;BME280;60995;52.154;4.498;2023-02-20T04:38:03;102209.34;;;9.51;81.13
72414;BME280;60995;52.154;4.498;2023-02-20T04:40:20;102209.84;;;9.43;80.95
72414;BME280;60995;52.154;4.498;2023-02-20T04:42:39;102199.00;;;9.29;81.24
72414;BME280;60995;52.154;4.498;2023-02-20T04:44:55;102210.03;;;9.26;81.45
72414;BME280;60995;52.154;4.498;2023-02-20T04:47:13;102207.59;;;9.21;81.94
72414;BME280;60995;52.154;4.498;2023-02-20T04:49:31;102206.38;;;9.27;81.59
72414;BME280;60995;52.154;4.498;2023-02-20T04:51:48;102211.09;;;9.23;81.34
72414;BME280;60995;52.154;4.498;2023-02-20T04:54:04;102203.25;;;9.19;81.59
72414;BME280;60995;52.154;4.498;2023-02-20T04:56:20;102221.81;;;9.25;81.52
72414;BME280;60995;52.154;4.498;2023-02-20T04:58:36;102214.97;;;9.19;81.84
72414;BME280;60995;52.154;4.498;2023-02-20T05:00:52;102215.25;;;9.29;81.59
72414;BME280;60995;52.154;4.498;2023-02-20T05:03:08;102216.78;;;9.19;81.33
72414;BME280;60995;52.154;4.498;2023-02-20T05:05:25;102223.97;;;9.34;81.26
72414;BME280;60995;52.154;4.498;2023-02-20T05:07:42;102218.91;;;9.28;81.36
72414;BME280;60995;52.154;4.498;2023-02-20T05:09:59;102216.69;;;9.20;81.60
72414;BME280;60995;52.154;4.498;2023-02-20T05:12:15;102219.69;;;9.16;81.45
72414;BME280;60995;52.154;4.498;2023-02-20T05:14:31;102234.03;;;9.18;81.58
72414;BME280;60995;52.154;4.498;2023-02-20T05:16:47;102226.16;;;9.13;81.64
72414;BME280;60995;52.154;4.498;2023-02-20T05:19:06;102227.44;;;9.07;81.77
72414;BME280;60995;52.154;4.498;2023-02-20T05:21:23;102232.06;;;9.20;81.63
72414;BME280;60995;52.154;4.498;2023-02-20T05:23:57;102226.84;;;9.17;81.46
72414;BME280;60995;52.154;4.498;2023-02-20T05:26:17;102234.69;;;9.21;81.77
72414;BME280;60995;52.154;4.498;2023-02-20T05:28:36;102231.47;;;9.00;82.15
72414;BME280;60995;52.154;4.498;2023-02-20T05:30:54;102230.88;;;9.09;81.71
72414;BME280;60995;52.154;4.498;2023-02-20T05:33:10;102225.31;;;9.13;81.69
72414;BME280;60995;52.154;4.498;2023-02-20T05:35:26;102225.91;;;9.18;81.52
72414;BME280;60995;52.154;4.498;2023-02-20T05:37:42;102233.63;;;9.24;80.87
72414;BME280;60995;52.154;4.498;2023-02-20T05:39:58;102225.47;;;9.09;81.61
72414;BME280;60995;52.154;4.498;2023-02-20T05:42:14;102230.03;;;9.09;81.48
72414;BME280;60995;52.154;4.498;2023-02-20T05:44:31;102226.28;;;9.12;81.43
72414;BME280;60995;52.154;4.498;2023-02-20T05:46:48;102230.22;;;9.20;80.95
72414;BME280;60995;52.154;4.498;2023-02-20T05:49:04;102229.66;;;9.15;80.68
72414;BME280;60995;52.154;4.498;2023-02-20T05:51:27;102208.84;;;9.16;81.30
72414;BME280;60995;52.154;4.498;2023-02-20T05:53:44;102219.31;;;9.22;81.34
72414;BME280;60995;52.154;4.498;2023-02-20T05:56:00;102213.34;;;9.31;80.50
72414;BME280;60995;52.154;4.498;2023-02-20T05:58:18;102203.44;;;9.16;81.17
72414;BME280;60995;52.154;4.498;2023-02-20T06:00:34;102198.41;;;9.09;81.41
72414;BME280;60995;52.154;4.498;2023-02-20T06:02:50;102203.06;;;9.07;81.08
72414;BME280;60995;52.154;4.498;2023-02-20T06:05:06;102206.31;;;8.98;81.06
72414;BME280;60995;52.154;4.498;2023-02-20T06:07:22;102203.41;;;8.87;81.80
72414;BME280;60995;52.154;4.498;2023-02-20T06:09:42;102204.16;;;8.89;82.20
72414;BME280;60995;52.154;4.498;2023-02-20T06:11:59;102203.19;;;8.90;81.85
72414;BME280;60995;52.154;4.498;2023-02-20T06:14:15;102204.59;;;8.97;81.43
72414;BME280;60995;52.154;4.498;2023-02-20T06:16:34;102202.69;;;8.83;82.24
72414;BME280;60995;52.154;4.498;2023-02-20T06:18:51;102197.03;;;8.88;81.65
72414;BME280;60995;52.154;4.498;2023-02-20T06:21:08;102195.84;;;8.77;82.53
72414;BME280;60995;52.154;4.498;2023-02-20T06:23:25;102196.97;;;8.73;82.40
72414;BME280;60995;52.154;4.498;2023-02-20T06:25:42;102199.34;;;8.94;82.25
72414;BME280;60995;52.154;4.498;2023-02-20T06:27:59;102202.25;;;8.91;81.89
72414;BME280;60995;52.154;4.498;2023-02-20T06:30:15;102210.16;;;8.94;81.79
72414;BME280;60995;52.154;4.498;2023-02-20T06:32:31;102206.09;;;8.87;82.17
72414;BME280;60995;52.154;4.498;2023-02-20T06:34:47;102191.69;;;8.86;82.21
72414;BME280;60995;52.154;4.498;2023-02-20T06:37:04;102204.09;;;8.90;82.13
72414;BME280;60995;52.154;4.498;2023-02-20T06:39:20;102206.84;;;8.89;82.21
72414;BME280;60995;52.154;4.498;2023-02-20T06:41:37;102206.00;;;8.88;82.19
72414;BME280;60995;52.154;4.498;2023-02-20T06:43:53;102214.91;;;8.90;82.21
72414;BME280;60995;52.154;4.498;2023-02-20T06:46:09;102202.91;;;8.80;82.41
72414;BME280;60995;52.154;4.498;2023-02-20T06:48:26;102197.28;;;8.83;82.52
72414;BME280;60995;52.154;4.498;2023-02-20T06:50:42;102212.66;;;8.83;82.45
72414;BME280;60995;52.154;4.498;2023-02-20T06:52:58;102202.69;;;8.83;82.88
72414;BME280;60995;52.154;4.498;2023-02-20T06:55:14;102208.31;;;8.80;82.61
72414;BME280;60995;52.154;4.498;2023-02-20T06:57:30;102199.53;;;8.91;82.46
72414;BME280;60995;52.154;4.498;2023-02-20T06:59:47;102208.84;;;9.01;82.28
72414;BME280;60995;52.154;4.498;2023-02-20T07:02:04;102208.28;;;9.10;81.30
72414;BME280;60995;52.154;4.498;2023-02-20T07:04:22;102214.25;;;9.01;81.52
72414;BME280;60995;52.154;4.498;2023-02-20T07:06:41;102216.06;;;9.01;81.99
72414;BME280;60995;52.154;4.498;2023-02-20T07:08:58;102212.13;;;9.06;81.76
72414;BME280;60995;52.154;4.498;2023-02-20T07:11:15;102225.94;;;9.02;82.00
72414;BME280;60995;52.154;4.498;2023-02-20T07:13:32;102220.84;;;9.12;81.49
72414;BME280;60995;52.154;4.498;2023-02-20T07:15:49;102225.47;;;9.09;81.30
72414;BME280;60995;52.154;4.498;2023-02-20T07:18:05;102228.41;;;9.21;81.35
72414;BME280;60995;52.154;4.498;2023-02-20T07:20:21;102229.59;;;9.31;80.95
72414;BME280;60995;52.154;4.498;2023-02-20T07:22:37;102234.09;;;9.31;80.75
72414;BME280;60995;52.154;4.498;2023-02-20T07:24:53;102238.28;;;9.36;80.75
72414;BME280;60995;52.154;4.498;2023-02-20T07:27:11;102236.75;;;9.47;80.11
72414;BME280;60995;52.154;4.498;2023-02-20T07:29:28;102233.84;;;9.35;80.35
72414;BME280;60995;52.154;4.498;2023-02-20T07:31:44;102232.50;;;9.57;80.19
72414;BME280;60995;52.154;4.498;2023-02-20T07:34:00;102233.44;;;9.27;80.83
72414;BME280;60995;52.154;4.498;2023-02-20T07:36:16;102234.09;;;9.31;81.10
72414;BME280;60995;52.154;4.498;2023-02-20T07:38:32;102234.78;;;9.34;80.51
72414;BME280;60995;52.154;4.498;2023-02-20T07:40:48;102236.34;;;9.38;80.75
72414;BME280;60995;52.154;4.498;2023-02-20T07:43:04;102221.47;;;9.46;80.17
72414;BME280;60995;52.154;4.498;2023-02-20T07:45:20;102224.06;;;9.47;80.36
72414;BME280;60995;52.154;4.498;2023-02-20T07:47:37;102218.28;;;9.53;79.80
72414;BME280;60995;52.154;4.498;2023-02-20T07:49:53;102222.03;;;9.51;80.43
72414;BME280;60995;52.154;4.498;2023-02-20T07:52:09;102226.78;;;9.62;80.08
72414;BME280;60995;52.154;4.498;2023-02-20T07:54:25;102225.59;;;9.66;80.02
72414;BME280;60995;52.154;4.498;2023-02-20T07:56:41;102232.78;;;9.52;80.32
72414;BME280;60995;52.154;4.498;2023-02-20T07:58:57;102224.94;;;9.48;80.84
72414;BME280;60995;52.154;4.498;2023-02-20T08:01:14;102226.19;;;9.71;80.56
72414;BME280;60995;52.154;4.498;2023-02-20T08:03:31;102226.28;;;9.84;79.65
72414;BME280;60995;52.154;4.498;2023-02-20T08:05:47;102229.09;;;9.68;80.13
72414;BME280;60995;52.154;4.498;2023-02-20T08:08:04;102225.81;;;9.77;79.88
72414;BME280;60995;52.154;4.498;2023-02-20T08:10:21;102223.66;;;9.82;78.94
72414;BME280;60995;52.154;4.498;2023-02-20T08:12:39;102228.72;;;9.74;79.09
72414;BME280;60995;52.154;4.498;2023-02-20T08:14:55;102230.16;;;9.80;79.32
72414;BME280;60995;52.154;4.498;2023-02-20T08:17:11;102237.13;;;9.84;79.12
72414;BME280;60995;52.154;4.498;2023-02-20T08:19:28;102234.22;;;9.87;79.01
72414;BME280;60995;52.154;4.498;2023-02-20T08:21:44;102235.97;;;9.73;79.25
72414;BME280;60995;52.154;4.498;2023-02-20T08:24:00;102230.41;;;9.89;78.81
72414;BME280;60995;52.154;4.498;2023-02-20T08:26:17;102226.47;;;9.95;78.63
72414;BME280;60995;52.154;4.498;2023-02-20T08:28:34;102228.59;;;9.90;78.45
72414;BME280;60995;52.154;4.498;2023-02-20T08:30:50;102225.88;;;10.04;77.99
72414;BME280;60995;52.154;4.498;2023-02-20T08:33:06;102224.13;;;10.03;77.93
72414;BME280;60995;52.154;4.498;2023-02-20T08:35:22;102214.72;;;9.94;78.11
72414;BME280;60995;52.154;4.498;2023-02-20T08:37:39;102218.72;;;9.89;78.54
72414;BME280;60995;52.154;4.498;2023-02-20T08:39:55;102216.19;;;10.00;78.15
72414;BME280;60995;52.154;4.498;2023-02-20T08:42:13;102209.47;;;10.06;77.88
72414;BME280;60995;52.154;4.498;2023-02-20T08:44:31;102214.06;;;10.05;77.94
72414;BME280;60995;52.154;4.498;2023-02-20T08:46:47;102206.88;;;10.04;78.00
72414;BME280;60995;52.154;4.498;2023-02-20T08:49:05;102204.06;;;10.06;77.93
72414;BME280;60995;52.154;4.498;2023-02-20T08:51:21;102204.53;;;10.13;77.42
72414;BME280;60995;52.154;4.498;2023-02-20T08:53:37;102201.31;;;10.20;77.46
72414;BME280;60995;52.154;4.498;2023-02-20T08:55:54;102217.63;;;10.33;77.21
72414;BME280;60995;52.154;4.498;2023-02-20T08:58:11;102203.31;;;10.31;77.07
72414;BME280;60995;52.154;4.498;2023-02-20T09:00:27;102190.13;;;10.39;76.97
72414;BME280;60995;52.154;4.498;2023-02-20T09:02:45;102192.63;;;10.83;75.52
72414;BME280;60995;52.154;4.498;2023-02-20T09:05:01;102205.38;;;10.95;74.13
72414;BME280;60995;52.154;4.498;2023-02-20T09:07:18;102198.84;;;11.11;73.98
72414;BME280;60995;52.154;4.498;2023-02-20T09:09:35;102197.22;;;10.95;73.68
72414;BME280;60995;52.154;4.498;2023-02-20T09:11:51;102210.88;;;10.93;74.04
72414;BME280;60995;52.154;4.498;2023-02-20T09:14:07;102205.22;;;10.71;74.73
72414;BME280;60995;52.154;4.498;2023-02-20T09:16:24;102210.44;;;10.87;74.54
72414;BME280;60995;52.154;4.498;2023-02-20T09:18:40;102215.41;;;10.67;74.70
72414;BME280;60995;52.154;4.498;2023-02-20T09:20:56;102215.31;;;10.41;75.81
72414;BME280;60995;52.154;4.498;2023-02-20T09:23:12;102213.78;;;10.37;76.50
72414;BME280;60995;52.154;4.498;2023-02-20T09:25:29;102212.97;;;10.50;75.66
72414;BME280;60995;52.154;4.498;2023-02-20T09:27:45;102197.94;;;10.44;75.97
72414;BME280;60995;52.154;4.498;2023-02-20T09:30:01;102207.31;;;10.53;75.76
72414;BME280;60995;52.154;4.498;2023-02-20T09:32:20;102213.28;;;10.31;76.49
72414;BME280;60995;52.154;4.498;2023-02-20T09:34:36;102215.78;;;10.34;77.36
72414;BME280;60995;52.154;4.498;2023-02-20T09:36:52;102217.00;;;10.57;77.71
72414;BME280;60995;52.154;4.498;2023-02-20T09:39:09;102218.66;;;10.18;77.33
72414;BME280;60995;52.154;4.498;2023-02-20T09:42:09;102219.69;;;10.30;76.71
72414;BME280;60995;52.154;4.498;2023-02-20T09:44:26;102217.22;;;10.12;78.44
72414;BME280;60995;52.154;4.498;2023-02-20T09:46:46;102214.66;;;10.38;78.71
72414;BME280;60995;52.154;4.498;2023-02-20T09:49:15;102218.47;;;10.35;78.76
72414;BME280;60995;52.154;4.498;2023-02-20T09:51:49;102215.53;;;10.24;77.42
72414;BME280;60995;52.154;4.498;2023-02-20T09:54:12;102208.59;;;10.20;77.71
72414;BME280;60995;52.154;4.498;2023-02-20T09:56:33;102224.78;;;10.07;77.98
72414;BME280;60995;52.154;4.498;2023-02-20T09:59:00;102217.59;;;10.20;77.84
72414;BME280;60995;52.154;4.498;2023-02-20T10:01:22;102208.16;;;10.40;77.09
72414;BME280;60995;52.154;4.498;2023-02-20T10:03:43;102203.88;;;10.51;77.31
72414;BME280;60995;52.154;4.498;2023-02-20T10:06:17;102201.78;;;10.54;76.29
72414;BME280;60995;52.154;4.498;2023-02-20T10:08:34;102205.06;;;10.59;76.06
72414;BME280;60995;52.154;4.498;2023-02-20T10:10:51;102212.97;;;10.50;76.23
72414;BME280;60995;52.154;4.498;2023-02-20T10:13:19;102204.06;;;10.48;76.41
72414;BME280;60995;52.154;4.498;2023-02-20T10:23:48;102204.63;;;10.53;76.17
72414;BME280;60995;52.154;4.498;2023-02-20T10:26:11;102213.91;;;10.76;75.65
72414;BME280;60995;52.154;4.498;2023-02-20T10:28:31;102207.72;;;10.47;75.85
72414;BME280;60995;52.154;4.498;2023-02-20T10:35:46;102188.72;;;10.87;74.56
72414;BME280;60995;52.154;4.498;2023-02-20T10:38:06;102187.44;;;10.80;74.84
72414;BME280;60995;52.154;4.498;2023-02-20T10:40:26;102191.00;;;10.80;74.75
72414;BME280;60995;52.154;4.498;2023-02-20T10:45:09;102208.06;;;10.82;75.05
72414;BME280;60995;52.154;4.498;2023-02-20T10:47:35;102192.97;;;10.91;74.62
72414;BME280;60995;52.154;4.498;2023-02-20T10:50:04;102189.28;;;10.92;74.52
72414;BME280;60995;52.154;4.498;2023-02-20T10:52:29;102204.69;;;10.79;74.95
72414;BME280;60995;52.154;4.498;2023-02-20T10:54:53;102218.97;;;10.95;74.69
72414;BME280;60995;52.154;4.498;2023-02-20T10:57:19;102222.78;;;10.65;75.56
72414;BME280;60995;52.154;4.498;2023-02-20T10:59:55;102215.22;;;10.70;74.72
72414;BME280;60995;52.154;4.498;2023-02-20T11:02:18;102211.09;;;10.78;75.63
72414;BME280;60995;52.154;4.498;2023-02-20T11:04:38;102193.00;;;10.51;76.62
72414;BME280;60995;52.154;4.498;2023-02-20T11:07:06;102208.06;;;10.82;74.80
72414;BME280;60995;52.154;4.498;2023-02-20T11:09:25;102186.53;;;10.79;74.69
72414;BME280;60995;52.154;4.498;2023-02-20T11:11:42;102185.47;;;10.82;75.66
72414;BME280;60995;52.154;4.498;2023-02-20T11:14:00;102179.56;;;10.62;75.82
72414;BME280;60995;52.154;4.498;2023-02-20T11:16:40;102190.06;;;11.07;74.91
72414;BME280;60995;52.154;4.498;2023-02-20T11:21:48;102191.81;;;10.95;73.94
72414;BME280;60995;52.154;4.498;2023-02-20T11:26:46;102178.31;;;11.32;73.69
72414;BME280;60995;52.154;4.498;2023-02-20T11:29:10;102173.13;;;11.29;72.92
72414;BME280;60995;52.154;4.498;2023-02-20T11:31:30;102172.47;;;11.25;73.25
72414;BME280;60995;52.154;4.498;2023-02-20T11:33:48;102168.00;;;11.37;73.47
72414;BME280;60995;52.154;4.498;2023-02-20T11:38:28;102192.13;;;11.29;72.97
72414;BME280;60995;52.154;4.498;2023-02-20T11:40:58;102202.47;;;11.37;72.83
72414;BME280;60995;52.154;4.498;2023-02-20T11:43:19;102163.50;;;11.62;72.08
72414;BME280;60995;52.154;4.498;2023-02-20T11:45:40;102170.69;;;11.63;71.90
72414;BME280;60995;52.154;4.498;2023-02-20T11:48:07;102177.00;;;11.51;72.49
72414;BME280;60995;52.154;4.498;2023-02-20T11:50:29;102175.88;;;11.66;72.31
72414;BME280;60995;52.154;4.498;2023-02-20T11:53:06;102194.84;;;11.42;73.21
72414;BME280;60995;52.154;4.498;2023-02-20T11:55:32;102205.06;;;11.38;72.94
72414;BME280;60995;52.154;4.498;2023-02-20T11:57:49;102194.38;;;11.48;72.24
72414;BME280;60995;52.154;4.498;2023-02-20T12:00:08;102180.19;;;11.82;71.15
72414;BME280;60995;52.154;4.498;2023-02-20T12:02:46;102191.47;;;11.64;71.41
72414;BME280;60995;52.154;4.498;2023-02-20T12:05:42;102180.59;;;11.64;71.43
72414;BME280;60995;52.154;4.498;2023-02-20T12:08:00;102175.44;;;11.72;71.17
72414;BME280;60995;52.154;4.498;2023-02-20T12:10:24;102164.94;;;11.92;71.07
72414;BME280;60995;52.154;4.498;2023-02-20T12:12:54;102153.50;;;12.24;70.49
72414;BME280;60995;52.154;4.498;2023-02-20T12:15:11;102178.72;;;12.74;68.40
72414;BME280;60995;52.154;4.498;2023-02-20T12:22:36;102180.31;;;12.17;69.71
72414;BME280;60995;52.154;4.498;2023-02-20T12:25:13;102186.50;;;11.95;70.56
72414;BME280;60995;52.154;4.498;2023-02-20T12:35:31;102164.53;;;11.98;69.46
72414;BME280;60995;52.154;4.498;2023-02-20T12:37:55;102163.13;;;12.41;68.70
72414;BME280;60995;52.154;4.498;2023-02-20T12:40:24;102162.69;;;12.23;69.03
72414;BME280;60995;52.154;4.498;2023-02-20T12:42:52;102178.59;;;12.65;68.16
72414;BME280;60995;52.154;4.498;2023-02-20T12:47:56;102162.34;;;12.03;69.73
72414;BME280;60995;52.154;4.498;2023-02-20T12:50:45;102167.13;;;11.87;69.95
72414;BME280;60995;52.154;4.498;2023-02-20T12:53:26;102159.03;;;12.11;69.48
72414;BME280;60995;52.154;4.498;2023-02-20T12:56:17;102155.88;;;12.04;69.71
72414;BME280;60995;52.154;4.498;2023-02-20T12:58:43;102154.00;;;12.18;69.03
72414;BME280;60995;52.154;4.498;2023-02-20T13:01:02;102145.72;;;11.82;69.90
72414;BME280;60995;52.154;4.498;2023-02-20T13:03:23;102155.19;;;11.77;70.75
72414;BME280;60995;52.154;4.498;2023-02-20T13:05:49;102150.69;;;12.01;69.88
72414;BME280;60995;52.154;4.498;2023-02-20T13:08:11;102150.00;;;11.73;70.54
72414;BME280;60995;52.154;4.498;2023-02-20T13:10:38;102149.06;;;11.62;70.86
72414;BME280;60995;52.154;4.498;2023-02-20T13:13:07;102151.72;;;11.74;70.49
72414;BME280;60995;52.154;4.498;2023-02-20T13:21:05;102156.59;;;11.32;72.88
72414;BME280;60995;52.154;4.498;2023-02-20T13:23:27;102142.03;;;11.20;73.56
72414;BME280;60995;52.154;4.498;2023-02-20T13:25:49;102151.59;;;11.26;72.98
72414;BME280;60995;52.154;4.498;2023-02-20T13:30:25;102155.25;;;11.51;72.32
72414;BME280;60995;52.154;4.498;2023-02-20T13:32:43;102137.00;;;11.53;72.18